• Join FlightAware (Why Join?)
  • Login
  • US Flag 
02:10AM EDT


 

Airport Tracker/Info


-or-


 

Live Flight TrackerFlight Track Log ✈ DAL6035 ✈ 27-Apr-2013 ✈ KLGA - KMHT

Flight Track Log - Related Links

Times and Time Zones

All times are in EDT time to prevent confusion due to time zone crossing. See the DAL6035 flight status page for this flight to view local times or setup timezone preferences in your user account.

Time Position Orientation Groundspeed Altitude Reporting Facility
EDT Latitude Longitude Course Direction KTS MPH feet Rate Location/Type
12:05PM 40.8000 -73.8667 27° Northeast 169 194 900  Level New York TRACON
12:06PM 40.8333 -73.8333 37° Northeast 199 229 3,300 2,400 Climbing New York TRACON
12:07PM 40.8833 -73.7833 37° Northeast 234 269 5,700 2,400 Climbing New York TRACON
12:09PM 41.1069 -73.6022 28° Northeast  Level FlightAware Approximate
12:10PM 41.1910 -73.5329 33° Northeast  Level FlightAware Approximate
12:10PM 41.0267 -73.6617 33° Northeast 265 305 11,300  Level Boston Center
12:11PM 41.2742 -73.4616 27° Northeast  Level FlightAware Approximate
12:11PM 41.0981 -73.6053 31° Northeast 281 323 12,800  Level Boston Center
12:12PM 41.1778 -73.5458 29° Northeast 314 361 14,900 1,740 Climbing Boston Center
12:13PM 41.2556 -73.4867 30° Northeast 324 373 16,300 1,440 Climbing Boston Center
12:14PM 41.3417 -73.4217 30° Northeast 337 388 17,800 1,620 Climbing Boston Center
12:15PM 41.4275 -73.3564 30° Northeast 337 388 19,600 1,560 Climbing Boston Center
12:16PM 41.5072 -73.2828 35° Northeast 342 394 21,000 660 Climbing Boston Center
12:17PM 41.5683 -73.2003 45° Northeast 342 394 21,000  Level Boston Center
12:18PM 41.6439 -73.1233 37° Northeast 342 394 21,000  Level Boston Center
12:19PM 41.7336 -73.1244 359° North 309 356 21,000  Level Boston Center
12:20PM 41.8272 -73.1422 352° North 315 362 21,000  Level Boston Center
12:21PM 41.9189 -73.1600 352° North 323 372 21,000  Level Boston Center
12:22PM 42.0125 -73.1750 353° North 335 386 21,000  Level Boston Center
12:23PM 42.1042 -73.1900 353° North 335 386 21,000  Level Boston Center
12:24PM 42.1978 -73.2053 353° North 335 386 21,000  Level Boston Center
12:25PM 42.2894 -73.2231 352° North 335 386 21,000  Level Boston Center
12:26PM 42.3956 -73.2386 354° North 335 386 21,000 -60 Level Boston Center
12:27PM 42.4872 -73.2508 354° North 335 386 20,900 -60 Descending Boston Center
12:28PM 42.5767 -73.2661 353° North 330 380 20,900  Level Boston Center
12:29PM 42.6661 -73.2900 349° North 330 380 21,000  Climbing Boston Center
12:30PM 42.7514 -73.3025 354° North 320 368 21,000  Level Boston Center
12:31PM 42.8367 -73.3178 353° North 315 362 21,000  Level Boston Center
12:32PM 42.9222 -73.3078 North 305 351 21,000 -600 Level Boston Center
12:33PM 42.9669 -73.2033 60° Northeast 288 331 19,900 -1,020 Descending Boston Center
12:34PM 42.9425 -73.0811 105° East 274 315 19,000 -480 Descending Boston Center
12:35PM 42.9203 -72.9419 102° East 317 365 19,000  Level Boston Center
12:36PM 42.8958 -72.8200 105° East 329 379 19,000 -180 Level Boston Center
12:37PM 42.8692 -72.6694 104° East 334 384 18,700 -660 Descending Boston Center
12:38PM 42.8442 -72.5478 106° East 339 390 17,600 -1,440 Descending Boston Center
12:39PM 42.8192 -72.4317 106° East 329 379 15,900 -1,800 Descending Boston Center
12:40PM 42.7983 -72.3156 104° East 318 366 14,100 -1,680 Descending Boston Center
12:41PM 42.8003 -72.2025 89° East 299 344 12,600 -1,500 Descending Boston Center
12:42PM 42.8083 -72.0919 84° East 289 333 11,200 -1,560 Descending Boston Center
12:43PM 42.8164 -71.9844 84° East 288 331 9,500 -1,560 Descending Boston Center
12:44PM 42.8264 -71.8825 82° East 281 323 8,100 -1,680 Descending Boston Center
12:45PM 42.8342 -71.7861 84° East 258 297 6,200 -1,800 Descending Boston Center
12:46PM 42.8419 -71.6897 84° East 252 290 4,500 -1,740 Descending Boston Center
12:47PM 42.8517 -71.5989 82° East 252 290 2,800 -1,740 Descending Boston Center